createdAt,value
2019-02-15T00:00:04.026Z,0.6
2019-02-15T00:01:04.016Z,0.7
2019-02-15T00:02:03.905Z,0.6
2019-02-15T00:10:02.457Z,1.2
2019-02-15T00:11:02.354Z,1.2
2019-02-15T00:12:02.238Z,1.1
2019-02-15T00:13:02.146Z,1.1
2019-02-15T00:14:02.064Z,1.1
2019-02-15T00:15:02.131Z,1
2019-02-15T00:16:02.038Z,1
2019-02-15T00:17:01.913Z,1
2019-02-15T00:18:01.808Z,0.9
2019-02-15T00:19:01.714Z,0.8
2019-02-15T00:20:02.100Z,0.8
2019-02-15T00:21:02.016Z,0.8
2019-02-15T00:22:01.982Z,0.8
2019-02-15T00:23:01.880Z,0.7
2019-02-15T00:24:01.777Z,0.7
2019-02-15T00:25:01.689Z,0.6
2019-02-15T00:26:01.578Z,0.7
2019-02-15T00:27:01.472Z,0.7
2019-02-15T00:28:01.423Z,0.6
2019-02-15T00:29:01.319Z,0.6
2019-02-15T00:30:01.671Z,0.6
2019-02-15T00:31:01.607Z,0.5
2019-02-15T00:32:01.513Z,0.5
2019-02-15T00:33:01.405Z,0.5
2019-02-15T00:34:01.314Z,0.5
2019-02-15T00:35:01.267Z,0.5
2019-02-15T00:36:01.164Z,0.5
2019-02-15T00:37:01.053Z,0.4
2019-02-15T00:38:00.934Z,0.3
2019-02-15T00:39:00.832Z,0.3
2019-02-15T00:40:01.131Z,0.3
2019-02-15T00:41:01.037Z,0.3
2019-02-15T00:42:00.912Z,0.3
2019-02-15T00:43:00.854Z,0.3
2019-02-15T00:45:00.732Z,0.4
2019-02-15T00:49:59.951Z,0.7
2019-02-15T00:51:00.019Z,0.7
2019-02-15T00:51:59.944Z,0.6
2019-02-15T00:52:59.817Z,0.6
2019-02-15T00:53:59.735Z,0.5
2019-02-15T00:54:59.615Z,0.5
2019-02-15T00:55:59.494Z,0.5
2019-02-15T00:56:59.397Z,0.5
2019-02-15T00:57:59.293Z,0.4
2019-02-15T00:58:59.172Z,0.4
2019-02-15T01:00:02.237Z,0.4
2019-02-15T01:01:02.131Z,0.4
2019-02-15T01:02:02.009Z,0.4
2019-02-15T01:03:01.929Z,0.4
2019-02-15T01:04:01.805Z,0.4
2019-02-15T01:05:01.707Z,0.4
2019-02-15T01:06:01.609Z,0.4
2019-02-15T01:07:01.511Z,0.5
2019-02-15T01:08:01.435Z,0.4
2019-02-15T01:09:01.323Z,0.4
2019-02-15T01:10:01.648Z,0.4
2019-02-15T01:11:01.619Z,0.3
2019-02-15T01:20:00.218Z,0.8
2019-02-15T01:21:00.222Z,0.8
2019-02-15T01:22:00.127Z,0.7
2019-02-15T01:23:00.003Z,0.7
2019-02-15T01:23:59.917Z,0.6
2019-02-15T01:24:59.823Z,0.6
2019-02-15T01:25:59.844Z,0.6
2019-02-15T01:26:59.743Z,0.5
2019-02-15T01:27:59.649Z,0.5
2019-02-15T01:28:59.551Z,0.5
2019-02-15T01:29:59.869Z,0.4
2019-02-15T01:30:59.985Z,0.4
2019-02-15T01:31:59.872Z,0.4
2019-02-15T01:32:59.745Z,0.4
2019-02-15T01:33:59.654Z,0.4
2019-02-15T01:34:59.541Z,0.3
2019-02-15T01:35:59.443Z,0.3
2019-02-15T01:36:59.321Z,0.3
2019-02-15T01:37:59.219Z,0.3
2019-02-15T01:38:59.103Z,0.2
2019-02-15T01:39:59.438Z,0.2
2019-02-15T01:40:59.337Z,0.2
2019-02-15T01:41:59.240Z,0.2
2019-02-15T01:49:57.792Z,0.7
2019-02-15T01:50:57.692Z,0.7
2019-02-15T01:51:57.585Z,0.7
2019-02-15T01:52:57.524Z,0.6
2019-02-15T01:53:57.422Z,0.5
2019-02-15T01:54:57.336Z,0.5
2019-02-15T01:55:57.233Z,0.5
2019-02-15T01:56:57.103Z,0.4
2019-02-15T01:57:56.992Z,0.5
2019-02-15T01:58:56.887Z,0.4
2019-02-15T01:59:57.443Z,0.4
2019-02-15T02:00:57.583Z,0.4
2019-02-15T02:01:57.491Z,0.3
2019-02-15T02:02:57.384Z,0.3
2019-02-15T02:09:56.082Z,0.8
2019-02-15T02:10:56.005Z,0.8
2019-02-15T02:11:55.913Z,0.8
2019-02-15T02:12:55.859Z,0.8
2019-02-15T02:13:55.792Z,0.7
2019-02-15T02:14:55.725Z,0.7
2019-02-15T02:15:55.647Z,0.7
2019-02-15T02:16:55.585Z,0.7
2019-02-15T02:17:55.467Z,0.6
2019-02-15T02:18:55.358Z,0.5
2019-02-15T02:19:55.697Z,0.5
2019-02-15T02:20:55.637Z,0.4
2019-02-15T02:21:55.559Z,0.4
2019-02-15T02:22:55.445Z,0.4
2019-02-15T02:23:55.345Z,0.3
2019-02-15T02:24:55.256Z,0.3
2019-02-15T02:25:55.144Z,0.3
2019-02-15T02:26:55.041Z,0.2
2019-02-15T02:27:54.943Z,0.2
2019-02-15T02:28:54.845Z,0.1
2019-02-15T02:29:55.223Z,0
2019-02-15T02:30:55.183Z,0
2019-02-15T02:31:55.138Z,0
2019-02-15T02:32:55.040Z,0
2019-02-15T02:33:54.932Z,-0.1
2019-02-15T02:34:54.831Z,-0.1
2019-02-15T02:35:54.749Z,-0.2
2019-02-15T02:36:54.673Z,-0.2
2019-02-15T02:37:54.597Z,-0.2
2019-02-15T02:38:54.537Z,-0.3
2019-02-15T02:39:55.100Z,-0.3
2019-02-15T02:40:55.005Z,-0.3
2019-02-15T02:41:54.898Z,-0.3
2019-02-15T02:42:54.812Z,-0.3
2019-02-15T02:44:00.591Z,-0.3
2019-02-15T02:45:00.623Z,-0.3
2019-02-15T02:46:00.564Z,-0.3
2019-02-15T02:47:00.552Z,-0.4
2019-02-15T02:48:00.467Z,-0.4
2019-02-15T02:49:00.378Z,-0.5
2019-02-15T02:50:00.841Z,-0.5
2019-02-15T02:51:00.802Z,-0.6
2019-02-15T02:52:00.764Z,-0.6
2019-02-15T02:53:00.676Z,-0.6
2019-02-15T02:54:00.662Z,-0.7
2019-02-15T02:55:00.608Z,-0.7
2019-02-15T02:56:00.521Z,-0.7
2019-02-15T02:57:00.459Z,-0.7
2019-02-15T02:58:00.388Z,-0.7
2019-02-15T02:59:00.367Z,-0.7
2019-02-15T03:00:01.045Z,-0.7
2019-02-15T03:01:00.943Z,-0.7
2019-02-15T03:02:00.852Z,-0.7
2019-02-15T03:03:00.777Z,-0.7
2019-02-15T03:04:00.661Z,-0.7
2019-02-15T03:05:00.803Z,-0.6
2019-02-15T03:06:00.733Z,-0.7
2019-02-15T03:07:00.621Z,-0.7
2019-02-15T03:08:00.536Z,-0.7
2019-02-15T03:09:00.440Z,-0.7
2019-02-15T03:10:00.979Z,-0.7
2019-02-15T03:11:00.875Z,-0.8
2019-02-15T03:12:01.006Z,-0.8
2019-02-15T03:13:00.935Z,-0.7
2019-02-15T03:14:12.380Z,-0.8
2019-02-15T03:15:12.356Z,-0.8
2019-02-15T03:16:12.311Z,-0.8
2019-02-15T03:17:12.209Z,-0.8
2019-02-15T03:18:12.096Z,-0.7
2019-02-15T03:19:12.021Z,-0.8
2019-02-15T03:20:12.380Z,-0.7
2019-02-15T03:21:12.286Z,-0.7
2019-02-15T03:22:12.180Z,-0.7
2019-02-15T03:23:12.071Z,-0.8
2019-02-15T03:24:11.965Z,-0.8
2019-02-15T03:25:12.146Z,-0.8
2019-02-15T03:26:12.102Z,-0.8
2019-02-15T03:27:11.997Z,-0.9
2019-02-15T03:28:11.916Z,-0.9
2019-02-15T03:29:11.806Z,-0.9
2019-02-15T03:30:12.228Z,-0.9
2019-02-15T03:31:12.205Z,-0.8
2019-02-15T03:32:12.366Z,-0.7
2019-02-15T03:33:12.391Z,-0.7
2019-02-15T03:34:12.387Z,-0.7
2019-02-15T03:35:12.337Z,-0.6
2019-02-15T03:36:12.293Z,-0.6
2019-02-15T03:37:12.239Z,-0.6
2019-02-15T03:38:12.128Z,-0.6
2019-02-15T03:39:12.058Z,-0.5
2019-02-15T03:40:12.425Z,-0.5
2019-02-15T03:41:12.332Z,-0.5
2019-02-15T03:42:12.274Z,-0.5
2019-02-15T03:43:12.184Z,-0.4
2019-02-15T03:44:23.221Z,-0.3
2019-02-15T03:45:23.166Z,-0.3
2019-02-15T03:46:23.103Z,-0.3
2019-02-15T03:47:23.050Z,-0.3
2019-02-15T03:48:22.941Z,-0.3
2019-02-15T03:49:22.890Z,-0.3
2019-02-15T03:50:23.267Z,-0.3
2019-02-15T03:51:23.213Z,-0.3
2019-02-15T03:52:23.141Z,-0.3
2019-02-15T03:53:23.275Z,-0.3
2019-02-15T03:54:23.258Z,-0.3
2019-02-15T03:55:23.181Z,-0.3
2019-02-15T03:56:23.073Z,-0.3
2019-02-15T03:57:22.995Z,-0.2
2019-02-15T03:58:23.085Z,-0.2
2019-02-15T03:59:23.024Z,-0.2
2019-02-15T04:00:23.423Z,-0.2
2019-02-15T04:01:23.318Z,-0.2
2019-02-15T04:02:23.223Z,-0.2
2019-02-15T04:03:23.146Z,-0.2
2019-02-15T04:04:23.083Z,-0.2
2019-02-15T04:05:23.228Z,-0.2
2019-02-15T04:06:23.121Z,-0.2
2019-02-15T04:07:23.034Z,-0.2
2019-02-15T04:08:22.989Z,-0.2
2019-02-15T04:09:22.905Z,-0.1
2019-02-15T04:10:23.321Z,-0.1
2019-02-15T04:11:23.234Z,-0.1
2019-02-15T04:12:23.171Z,-0.2
2019-02-15T04:13:23.070Z,-0.1
2019-02-15T04:14:33.952Z,-0.1
2019-02-15T04:15:33.900Z,-0.1
2019-02-15T04:16:33.792Z,-0.1
2019-02-15T04:17:33.697Z,-0.1
2019-02-15T04:18:33.633Z,-0.1
2019-02-15T04:19:33.541Z,-0.1
2019-02-15T04:20:33.857Z,-0.1
2019-02-15T04:21:33.750Z,-0.1
2019-02-15T04:22:33.674Z,-0.1
2019-02-15T04:23:33.616Z,-0.1
2019-02-15T04:24:33.598Z,-0.1
2019-02-15T04:25:33.509Z,-0.1
2019-02-15T04:26:33.516Z,-0.1
2019-02-15T04:27:33.444Z,-0.1
2019-02-15T04:28:33.424Z,-0.1
2019-02-15T04:29:33.342Z,-0.1
2019-02-15T04:30:33.677Z,-0.1
2019-02-15T04:31:33.618Z,-0.1
2019-02-15T04:32:33.532Z,-0.2
2019-02-15T04:33:33.468Z,-0.1
2019-02-15T04:34:33.380Z,-0.1
2019-02-15T04:35:33.294Z,-0.1
2019-02-15T04:36:33.232Z,-0.1
2019-02-15T04:37:33.163Z,-0.1
2019-02-15T04:38:33.062Z,-0.2
2019-02-15T04:39:32.954Z,-0.1
2019-02-15T04:40:33.314Z,-0.2
2019-02-15T04:41:33.240Z,-0.1
2019-02-15T04:42:33.258Z,-0.2
2019-02-15T04:43:33.151Z,-0.2
2019-02-15T04:44:43.658Z,-0.1
2019-02-15T04:45:43.584Z,-0.2
2019-02-15T04:46:43.544Z,-0.2
2019-02-15T04:47:43.493Z,-0.2
2019-02-15T04:48:43.399Z,-0.2
2019-02-15T04:49:43.530Z,-0.2
2019-02-15T04:50:43.859Z,-0.3
2019-02-15T04:51:43.833Z,-0.3
2019-02-15T04:52:43.734Z,-0.3
2019-02-15T04:53:43.658Z,-0.4
2019-02-15T04:54:43.583Z,-0.4
2019-02-15T04:55:43.567Z,-0.4
2019-02-15T04:56:43.580Z,-0.4
2019-02-15T04:57:43.480Z,-0.5
2019-02-15T04:58:43.398Z,-0.5
2019-02-15T04:59:43.296Z,-0.5
2019-02-15T05:00:43.651Z,-0.5
2019-02-15T05:01:43.599Z,-0.5
2019-02-15T05:02:43.506Z,-0.5
2019-02-15T05:03:43.390Z,-0.5
2019-02-15T05:04:43.510Z,-0.5
2019-02-15T05:05:43.404Z,-0.5
2019-02-15T05:06:43.397Z,-0.5
2019-02-15T05:07:43.334Z,-0.5
2019-02-15T05:08:43.231Z,-0.6
2019-02-15T05:09:43.150Z,-0.6
2019-02-15T05:10:43.490Z,-0.6
2019-02-15T05:11:43.459Z,-0.6
2019-02-15T05:20:52.556Z,0
2019-02-15T05:21:52.465Z,0
2019-02-15T05:22:52.355Z,-0.1
2019-02-15T05:23:52.322Z,-0.1
2019-02-15T05:24:52.244Z,-0.2
2019-02-15T05:25:52.152Z,-0.2
2019-02-15T05:26:52.095Z,-0.3
2019-02-15T05:27:52.040Z,-0.3
2019-02-15T05:28:51.945Z,-0.4
2019-02-15T05:29:51.863Z,-0.3
2019-02-15T05:30:52.184Z,-0.4
2019-02-15T05:31:52.072Z,-0.4
2019-02-15T05:32:52.006Z,-0.4
2019-02-15T05:33:51.921Z,-0.5
2019-02-15T05:34:51.817Z,-0.5
2019-02-15T05:35:51.731Z,-0.5
2019-02-15T05:36:51.626Z,-0.5
2019-02-15T05:37:51.562Z,-0.5
2019-02-15T05:38:51.447Z,-0.6
2019-02-15T05:39:51.372Z,-0.6
2019-02-15T05:40:51.796Z,-0.7
2019-02-15T05:41:51.725Z,-0.7
2019-02-15T05:42:51.631Z,-0.7
2019-02-15T05:43:51.547Z,-0.7
2019-02-15T05:44:51.438Z,-0.7
2019-02-15T05:45:51.378Z,-0.7
2019-02-15T05:46:52.318Z,-0.8
2019-02-15T05:47:52.232Z,-0.8
2019-02-15T05:48:52.188Z,-0.8
2019-02-15T05:49:52.091Z,-0.8
2019-02-15T05:50:52.468Z,-0.8
2019-02-15T05:51:52.364Z,-0.9
2019-02-15T05:52:52.270Z,-0.9
2019-02-15T05:53:52.172Z,-0.8
2019-02-15T05:54:52.090Z,-0.8
2019-02-15T05:55:52.013Z,-0.9
2019-02-15T05:56:51.937Z,-0.9
2019-02-15T05:57:51.898Z,-0.9
2019-02-15T05:58:51.788Z,-0.9
2019-02-15T05:59:51.683Z,-0.9
2019-02-15T06:00:52.502Z,-0.9
2019-02-15T06:01:52.428Z,-1
2019-02-15T06:02:52.334Z,-1
2019-02-15T06:03:52.234Z,-1
2019-02-15T06:04:52.197Z,-1
2019-02-15T06:05:52.149Z,-1
2019-02-15T06:06:52.056Z,-1
2019-02-15T06:07:51.983Z,-0.9
2019-02-15T06:08:51.890Z,-0.9
2019-02-15T06:09:51.788Z,-1
2019-02-15T06:10:52.154Z,-1
2019-02-15T06:11:52.064Z,-1
2019-02-15T06:12:52.007Z,-1.1
2019-02-15T06:13:51.883Z,-1
2019-02-15T06:14:51.766Z,-1
2019-02-15T06:15:51.656Z,-1
2019-02-15T06:16:51.564Z,-1
2019-02-15T06:17:51.564Z,-1
2019-02-15T06:18:51.472Z,-1
2019-02-15T06:19:51.424Z,-1.1
2019-02-15T06:20:51.750Z,-1
2019-02-15T06:21:51.942Z,-1.1
2019-02-15T06:30:50.676Z,-0.4
2019-02-15T06:31:50.574Z,-0.4
2019-02-15T06:32:50.511Z,-0.4
2019-02-15T06:33:50.468Z,-0.5
2019-02-15T06:34:50.356Z,-0.5
2019-02-15T06:35:50.260Z,-0.5
2019-02-15T06:36:50.207Z,-0.5
2019-02-15T06:37:50.148Z,-0.6
2019-02-15T06:38:50.090Z,-0.6
2019-02-15T06:39:49.980Z,-0.7
2019-02-15T06:40:50.335Z,-0.7
2019-02-15T06:41:50.215Z,-0.7
2019-02-15T06:42:50.124Z,-0.7
2019-02-15T06:43:50.118Z,-0.7
2019-02-15T06:44:50.023Z,-0.7
2019-02-15T06:45:49.920Z,-0.6
2019-02-15T06:46:49.827Z,-0.7
2019-02-15T06:47:49.736Z,-0.6
2019-02-15T06:48:49.679Z,-0.6
2019-02-15T06:49:49.598Z,-0.6
2019-02-15T06:50:49.983Z,-0.6
2019-02-15T06:51:49.898Z,-0.7
2019-02-15T06:52:49.806Z,-0.8
2019-02-15T07:00:48.555Z,-0.5
2019-02-15T07:01:48.646Z,-0.5
2019-02-15T07:02:48.524Z,-0.6
2019-02-15T07:03:48.647Z,-0.6
2019-02-15T07:04:48.554Z,-0.6
2019-02-15T07:05:48.475Z,-0.7
2019-02-15T07:06:48.364Z,-0.7
2019-02-15T07:07:48.412Z,-0.6
2019-02-15T07:08:48.309Z,-0.6
2019-02-15T07:09:48.198Z,-0.6
2019-02-15T07:10:48.620Z,-0.6
2019-02-15T07:11:48.620Z,-0.5
2019-02-15T07:12:48.534Z,-0.5
2019-02-15T07:13:48.670Z,-0.4
2019-02-15T07:14:48.618Z,-0.3
2019-02-15T07:15:48.568Z,-0.2
2019-02-15T07:16:48.462Z,-0.2
2019-02-15T07:17:48.619Z,-0.1
2019-02-15T07:18:48.572Z,-0.1
2019-02-15T07:19:48.463Z,-0.1
2019-02-15T07:20:48.800Z,0
2019-02-15T07:21:48.712Z,0
2019-02-15T07:22:48.624Z,0.1
2019-02-15T07:23:48.533Z,0.1
2019-02-15T07:24:48.704Z,0.2
2019-02-15T07:25:48.624Z,0.3
2019-02-15T07:26:48.556Z,0.4
2019-02-15T07:27:48.438Z,0.5
2019-02-15T07:28:48.334Z,0.5
2019-02-15T07:29:48.219Z,0.6
2019-02-15T07:30:48.602Z,0.7
2019-02-15T07:31:48.526Z,0.8
2019-02-15T07:32:48.606Z,0.8
2019-02-15T07:36:48.889Z,1.6
2019-02-15T07:37:48.829Z,1.7
2019-02-15T07:40:48.807Z,2.2
2019-02-15T07:41:48.727Z,2.3
2019-02-15T07:42:48.666Z,2.4
2019-02-15T07:43:48.555Z,2.4
2019-02-15T07:44:48.463Z,2.6
2019-02-15T07:45:48.527Z,2.7
2019-02-15T07:46:48.601Z,2.8
2019-02-15T07:47:48.689Z,2.8
2019-02-15T07:48:48.597Z,2.8
2019-02-15T07:49:48.526Z,2.9
2019-02-15T07:50:49.083Z,2.8
2019-02-15T07:51:48.994Z,2.8
2019-02-15T07:52:48.886Z,2.9
2019-02-15T07:53:48.800Z,2.8
2019-02-15T07:54:48.711Z,2.8
2019-02-15T07:55:48.611Z,2.7
2019-02-15T07:56:48.602Z,2.7
2019-02-15T07:57:48.557Z,2.7
2019-02-15T07:58:48.510Z,2.6
2019-02-15T07:59:48.403Z,2.7
2019-02-15T08:00:48.753Z,2.7
2019-02-15T08:01:48.679Z,2.7
2019-02-15T08:02:48.611Z,2.7
2019-02-15T08:03:48.640Z,2.7
2019-02-15T08:04:48.565Z,2.8
2019-02-15T08:05:48.480Z,2.8
2019-02-15T08:06:48.611Z,2.8
2019-02-15T08:07:48.623Z,2.7
2019-02-15T08:08:48.542Z,2.9
2019-02-15T08:09:48.428Z,3
2019-02-15T08:10:49.108Z,3.1
2019-02-15T08:11:49.024Z,3.2
2019-02-15T08:12:48.946Z,3.3
2019-02-15T08:13:49.056Z,3.4
2019-02-15T08:14:49.003Z,3.6
2019-02-15T08:15:52.750Z,3.6
2019-02-15T08:16:52.645Z,3.7
2019-02-15T08:17:52.545Z,3.8
2019-02-15T08:18:52.468Z,3.9
2019-02-15T08:19:52.367Z,4
2019-02-15T08:20:52.667Z,4
2019-02-15T08:21:52.595Z,4.1
2019-02-15T08:22:52.505Z,4.2
2019-02-15T08:23:52.413Z,4.3
2019-02-15T08:24:52.309Z,4.4
2019-02-15T08:25:52.221Z,4.8
2019-02-15T08:26:52.118Z,4.9
2019-02-15T08:27:52.031Z,5.1
2019-02-15T08:28:51.950Z,5.1
2019-02-15T08:29:51.857Z,5.1
2019-02-15T08:30:52.184Z,5
2019-02-15T08:31:52.081Z,5.2
2019-02-15T08:32:52.003Z,5.3
2019-02-15T08:33:51.897Z,5.4
2019-02-15T08:34:51.789Z,5.4
2019-02-15T08:35:52.764Z,5.5
2019-02-15T08:36:52.669Z,5.6
2019-02-15T08:37:52.598Z,5.6
2019-02-15T08:38:53.533Z,5.6
2019-02-15T08:39:53.451Z,5.6
2019-02-15T08:40:53.803Z,5.6
2019-02-15T08:42:04.922Z,5.7
2019-02-15T08:43:04.853Z,5.6
2019-02-15T08:44:04.760Z,5.7
2019-02-15T08:45:04.681Z,5.7
2019-02-15T08:46:04.582Z,5.7
2019-02-15T08:47:04.495Z,5.7
2019-02-15T08:48:04.411Z,5.7
2019-02-15T08:49:04.338Z,5.7
2019-02-15T08:50:04.233Z,5.7
2019-02-15T08:51:04.583Z,5.7
2019-02-15T08:52:04.474Z,5.6
2019-02-15T08:53:04.373Z,5.6
2019-02-15T08:54:04.362Z,5.7
2019-02-15T08:55:04.254Z,5.8
2019-02-15T08:56:04.154Z,5.8
2019-02-15T08:57:04.062Z,5.8
2019-02-15T08:58:03.953Z,5.9
2019-02-15T08:59:03.831Z,6
2019-02-15T09:00:03.732Z,6
2019-02-15T09:01:04.073Z,6
2019-02-15T09:02:04.107Z,6.1
2019-02-15T09:03:04.001Z,6.2
2019-02-15T09:04:03.907Z,6.1
2019-02-15T09:05:03.859Z,6.1
2019-02-15T09:06:03.769Z,6.1
2019-02-15T09:07:03.679Z,6.2
2019-02-15T09:08:03.604Z,6.2
2019-02-15T09:09:03.526Z,6.3
2019-02-15T09:10:03.431Z,6.2
2019-02-15T09:11:03.773Z,6.3
2019-02-15T09:12:03.731Z,6.2
2019-02-15T09:13:03.653Z,6.2
2019-02-15T09:14:03.556Z,6.1
2019-02-15T09:15:03.488Z,6
2019-02-15T09:16:11.173Z,6.1
2019-02-15T09:17:11.101Z,6
2019-02-15T09:18:11.020Z,6.1
2019-02-15T09:19:10.923Z,6
2019-02-15T09:20:10.877Z,6.2
2019-02-15T09:21:11.267Z,6.1
2019-02-15T09:22:11.176Z,6.1
2019-02-15T09:23:12.858Z,6
2019-02-15T09:24:12.768Z,6.1
2019-02-15T09:25:12.694Z,6.2
2019-02-15T09:26:18.935Z,6.2
2019-02-15T09:27:18.831Z,6.2
2019-02-15T09:28:18.726Z,6.2
2019-02-15T09:29:18.630Z,6.2
2019-02-15T09:30:18.566Z,6.2
2019-02-15T09:31:18.881Z,6.2
2019-02-15T09:32:18.806Z,6.2
2019-02-15T09:33:18.689Z,6.2
2019-02-15T09:34:18.581Z,6.3
2019-02-15T09:35:18.473Z,6.3
2019-02-15T09:36:18.398Z,6.3
2019-02-15T09:37:18.284Z,6.4
2019-02-15T09:38:18.169Z,6.4
2019-02-15T09:39:18.068Z,6.4
2019-02-15T09:40:17.963Z,6.5
2019-02-15T09:41:18.383Z,6.5
2019-02-15T09:42:18.257Z,6.6
2019-02-15T09:43:18.155Z,6.6
2019-02-15T09:44:18.045Z,6.6
2019-02-15T09:45:17.963Z,6.7
2019-02-15T09:46:20.866Z,6.7
2019-02-15T09:47:20.781Z,6.8
2019-02-15T09:48:20.700Z,6.8
2019-02-15T09:49:24.703Z,6.8
2019-02-15T09:50:24.626Z,6.8
2019-02-15T09:51:24.985Z,6.8
2019-02-15T09:52:24.881Z,6.9
2019-02-15T09:53:24.754Z,7
2019-02-15T09:54:24.659Z,7.2
2019-02-15T09:55:24.579Z,7.3
2019-02-15T09:56:24.476Z,7.3
2019-02-15T09:57:24.383Z,7.4
2019-02-15T09:58:24.275Z,7.4
2019-02-15T09:59:24.163Z,7.5
2019-02-15T10:00:24.103Z,7.5
2019-02-15T10:01:24.459Z,7.6
2019-02-15T10:02:24.356Z,7.6
2019-02-15T10:03:24.237Z,7.6
2019-02-15T10:04:24.146Z,7.6
2019-02-15T10:05:24.100Z,7.6
2019-02-15T10:06:24.027Z,7.6
2019-02-15T10:07:23.915Z,7.5
2019-02-15T10:08:23.815Z,7.4
2019-02-15T10:09:23.724Z,7.4
2019-02-15T10:10:23.643Z,7.4
2019-02-15T10:11:24.032Z,7.4
2019-02-15T10:12:23.944Z,7.4
2019-02-15T10:13:23.915Z,7.4
2019-02-15T10:14:23.831Z,7.5
2019-02-15T10:15:23.714Z,7.7
2019-02-15T10:16:31.950Z,7.7
2019-02-15T10:17:31.865Z,7.7
2019-02-15T10:18:31.752Z,7.8
2019-02-15T10:19:31.658Z,7.9
2019-02-15T10:20:31.536Z,7.8
2019-02-15T10:21:31.885Z,7.9
2019-02-15T10:22:31.794Z,7.8
2019-02-15T10:23:31.702Z,7.9
2019-02-15T10:24:31.597Z,7.9
2019-02-15T10:25:31.495Z,7.8
2019-02-15T10:26:31.489Z,7.8
2019-02-15T10:27:31.381Z,7.7
2019-02-15T10:28:31.304Z,7.8
2019-02-15T10:29:31.230Z,7.8
2019-02-15T10:30:31.114Z,7.8
2019-02-15T10:31:31.440Z,7.8
2019-02-15T10:32:31.330Z,7.8
2019-02-15T10:33:31.237Z,7.9
2019-02-15T10:34:31.131Z,7.9
2019-02-15T10:35:31.034Z,8
2019-02-15T10:36:30.966Z,8
2019-02-15T10:37:30.852Z,8.1
2019-02-15T10:38:30.762Z,8.1
2019-02-15T10:39:30.646Z,8.1
2019-02-15T10:40:30.552Z,8.2
2019-02-15T10:41:30.934Z,8.2
2019-02-15T10:42:30.856Z,8.2
2019-02-15T10:43:30.779Z,8.2
2019-02-15T10:44:30.691Z,8.3
2019-02-15T10:45:30.600Z,8.3
2019-02-15T10:46:38.582Z,8.3
2019-02-15T10:47:38.468Z,8.3
2019-02-15T10:48:38.418Z,8.3
2019-02-15T10:49:38.310Z,8.3
2019-02-15T10:51:38.477Z,8.5
2019-02-15T10:52:38.374Z,8.7
2019-02-15T10:53:38.354Z,8.8
2019-02-15T10:54:38.266Z,8.7
2019-02-15T10:55:38.792Z,8.7
2019-02-15T10:56:38.754Z,8.8
2019-02-15T10:57:38.677Z,8.9
2019-02-15T10:58:38.668Z,9
2019-02-15T10:59:38.598Z,9
2019-02-15T11:00:38.536Z,9
2019-02-15T11:01:38.843Z,9
2019-02-15T11:02:38.782Z,9.1
2019-02-15T11:03:38.734Z,9
2019-02-15T11:04:38.697Z,9.1
2019-02-15T11:05:40.773Z,9.1
2019-02-15T11:06:40.676Z,9.1
2019-02-15T11:07:40.576Z,9.1
2019-02-15T11:08:40.462Z,9
2019-02-15T11:09:40.410Z,9.1
2019-02-15T11:10:40.318Z,9
2019-02-15T11:11:40.674Z,8.9
2019-02-15T11:12:40.672Z,8.8
2019-02-15T11:13:40.583Z,8.7
2019-02-15T11:14:40.482Z,8.7
2019-02-15T11:15:40.382Z,8.8
2019-02-15T11:16:48.019Z,8.8
2019-02-15T11:17:48.108Z,8.7
2019-02-15T11:18:48.096Z,8.7
2019-02-15T11:19:48.093Z,8.7
2019-02-15T11:20:48.073Z,8.7
2019-02-15T11:21:48.636Z,8.6
2019-02-15T11:22:48.652Z,8.6
2019-02-15T11:23:48.542Z,8.6
2019-02-15T11:24:48.448Z,8.7
2019-02-15T11:25:48.596Z,8.7
2019-02-15T11:26:48.624Z,8.6
2019-02-15T11:27:48.582Z,8.6
2019-02-15T11:28:48.586Z,8.4
2019-02-15T11:29:48.622Z,8.4
2019-02-15T11:30:48.610Z,8.4
2019-02-15T11:31:48.975Z,8.4
2019-02-15T11:32:48.896Z,8.5
2019-02-15T11:33:48.997Z,8.4
2019-02-15T11:34:48.896Z,8.3
2019-02-15T11:35:48.790Z,8.2
2019-02-15T11:36:48.712Z,8.2
2019-02-15T11:37:48.598Z,8.2
2019-02-15T11:38:48.608Z,8.2
2019-02-15T11:39:48.512Z,8.1
2019-02-15T11:40:48.621Z,8.1
2019-02-15T11:41:48.961Z,8
2019-02-15T11:42:48.860Z,8.1
2019-02-15T11:43:48.821Z,8.2
2019-02-15T11:44:48.722Z,8.3
2019-02-15T11:45:48.638Z,8.4
2019-02-15T11:46:57.397Z,8.3
2019-02-15T11:47:57.287Z,8.3
2019-02-15T11:48:57.171Z,8.2
2019-02-15T11:49:57.069Z,8.2
2019-02-15T11:50:56.968Z,8.2
2019-02-15T11:51:57.302Z,8.1
2019-02-15T11:52:57.194Z,8.1
2019-02-15T11:53:59.210Z,8.1
2019-02-15T11:54:59.104Z,8.1
2019-02-15T11:55:59.008Z,8.1
2019-02-15T11:56:58.908Z,8.1
2019-02-15T11:57:58.789Z,8.1
2019-02-15T11:58:58.687Z,8.2
2019-02-15T11:59:58.574Z,8.2
2019-02-15T12:00:58.475Z,8.2
2019-02-15T12:02:07.104Z,8.3
2019-02-15T12:03:07.029Z,8.2
2019-02-15T12:04:07.340Z,8.2
2019-02-15T12:05:07.270Z,8.2
2019-02-15T12:06:07.185Z,8.2
2019-02-15T12:07:07.079Z,8.2
2019-02-15T12:08:06.990Z,8.2
2019-02-15T12:09:06.887Z,8.1
2019-02-15T12:10:06.783Z,8.2
2019-02-15T12:11:06.702Z,8.2
2019-02-15T12:12:11.551Z,8.2
2019-02-15T12:13:11.476Z,8.2
2019-02-15T12:14:11.375Z,8.2
2019-02-15T12:15:11.289Z,8.2
2019-02-15T12:16:11.188Z,8.3
2019-02-15T12:17:11.094Z,8.3
2019-02-15T12:18:10.968Z,8.3
2019-02-15T12:19:10.864Z,8.3
2019-02-15T12:20:10.781Z,8.3
2019-02-15T12:21:10.685Z,8.3
2019-02-15T12:22:11.076Z,8.3
2019-02-15T12:26:20.025Z,8.5
2019-02-15T12:27:19.959Z,8.6
2019-02-15T12:28:19.867Z,8.6
2019-02-15T12:29:19.755Z,8.6
2019-02-15T12:30:19.673Z,8.7
2019-02-15T12:31:19.572Z,8.6
2019-02-15T12:32:19.480Z,8.7
2019-02-15T12:33:19.836Z,8.7
2019-02-15T12:34:19.834Z,8.7
2019-02-15T12:35:19.719Z,8.7
2019-02-15T12:36:19.627Z,8.8
2019-02-15T12:37:19.632Z,8.8
2019-02-15T12:38:19.530Z,8.8
2019-02-15T12:39:19.437Z,8.7
2019-02-15T12:40:19.349Z,8.7
2019-02-15T12:41:19.250Z,8.6
2019-02-15T12:42:19.157Z,8.7
2019-02-15T12:43:19.495Z,8.6
2019-02-15T12:44:19.382Z,8.6
2019-02-15T12:45:19.279Z,8.6
2019-02-15T12:46:19.235Z,8.6
2019-02-15T12:47:19.178Z,8.6
2019-02-15T12:48:19.086Z,8.6
2019-02-15T12:49:19.013Z,8.6
2019-02-15T12:50:18.917Z,8.6
2019-02-15T12:51:18.822Z,8.5
2019-02-15T12:52:18.769Z,8.5
2019-02-15T12:53:19.151Z,8.5
2019-02-15T12:54:19.033Z,8.5
2019-02-15T12:55:18.919Z,8.5
2019-02-15T12:56:18.825Z,8.5
2019-02-15T12:57:18.791Z,8.5
2019-02-15T12:58:18.739Z,8.4
2019-02-15T12:59:18.634Z,8.4
2019-02-15T13:00:18.528Z,8.4
2019-02-15T13:01:18.432Z,8.3
2019-02-15T13:02:18.347Z,8.3
2019-02-15T13:03:18.679Z,8.3
2019-02-15T13:04:18.581Z,8.3
2019-02-15T13:05:18.501Z,8.2
2019-02-15T13:06:18.393Z,8.2
2019-02-15T13:07:28.071Z,8.2
2019-02-15T13:08:27.979Z,8.2
2019-02-15T13:09:27.884Z,8.2
2019-02-15T13:10:27.784Z,8.2
2019-02-15T13:11:27.670Z,8.2
2019-02-15T13:12:27.583Z,8.2
2019-02-15T13:13:27.931Z,8.1
2019-02-15T13:14:27.822Z,8.1
2019-02-15T13:15:27.723Z,8.2
2019-02-15T13:16:27.627Z,8.2
2019-02-15T13:17:27.563Z,8.3
2019-02-15T13:18:27.471Z,8.4
2019-02-15T13:19:27.416Z,8.4
2019-02-15T13:20:27.334Z,8.4
2019-02-15T13:21:27.249Z,8.5
2019-02-15T13:22:27.175Z,8.5
2019-02-15T13:23:27.553Z,8.6
2019-02-15T13:24:27.446Z,8.6
2019-02-15T13:25:37.616Z,8.6
2019-02-15T13:26:37.563Z,8.6
2019-02-15T13:27:37.491Z,8.7
2019-02-15T13:28:37.445Z,8.8
2019-02-15T13:29:37.329Z,8.8
2019-02-15T13:30:37.225Z,8.9
2019-02-15T13:31:37.121Z,9
2019-02-15T13:32:37.044Z,8.9
2019-02-15T13:33:37.414Z,9
2019-02-15T13:34:37.323Z,9
2019-02-15T13:35:37.225Z,9
2019-02-15T13:36:37.123Z,9
2019-02-15T13:37:37.037Z,9
2019-02-15T13:38:36.932Z,9.1
2019-02-15T13:39:36.830Z,9.1
2019-02-15T13:40:36.715Z,9
2019-02-15T13:41:36.604Z,9.1
2019-02-15T13:42:36.537Z,9
2019-02-15T13:43:36.855Z,9
2019-02-15T13:44:36.760Z,8.9
2019-02-15T13:45:36.671Z,8.9
2019-02-15T13:46:36.568Z,8.9
2019-02-15T13:47:36.505Z,8.9
2019-02-15T13:48:36.413Z,8.9
2019-02-15T13:49:36.323Z,8.8
2019-02-15T13:50:36.240Z,8.8
2019-02-15T13:51:36.141Z,8.8
2019-02-15T13:52:36.061Z,8.8
2019-02-15T13:53:36.412Z,8.8
2019-02-15T13:54:38.388Z,8.7
2019-02-15T13:55:38.551Z,8.8
2019-02-15T13:56:40.366Z,8.8
2019-02-15T13:57:40.613Z,8.7
2019-02-15T13:58:40.519Z,8.8
2019-02-15T13:59:40.419Z,8.8
2019-02-15T14:00:40.322Z,8.8
2019-02-15T14:01:40.247Z,8.8
2019-02-15T14:02:40.153Z,8.7
2019-02-15T14:03:40.540Z,8.8
2019-02-15T14:04:40.451Z,8.7
2019-02-15T14:05:40.389Z,8.7
2019-02-15T14:06:40.314Z,8.7
2019-02-15T14:07:40.213Z,8.7
2019-02-15T14:08:40.159Z,8.8
2019-02-15T14:09:40.061Z,8.8
2019-02-15T14:10:39.967Z,8.9
2019-02-15T14:11:39.833Z,8.9
2019-02-15T14:12:39.746Z,9
2019-02-15T14:13:40.088Z,9.1
2019-02-15T14:14:39.980Z,9.2
2019-02-15T14:15:39.879Z,9.2
2019-02-15T14:16:39.805Z,9.2
2019-02-15T14:17:48.947Z,9.2
2019-02-15T14:18:48.929Z,9.2
2019-02-15T14:19:48.954Z,9.2
2019-02-15T14:20:48.858Z,9.1
2019-02-15T14:21:48.777Z,9.1
2019-02-15T14:22:48.693Z,9.1
2019-02-15T14:23:49.285Z,9
2019-02-15T14:24:49.235Z,9
2019-02-15T14:25:49.154Z,9
2019-02-15T14:26:49.042Z,8.9
2019-02-15T14:27:48.925Z,8.9
2019-02-15T14:28:48.873Z,8.9
2019-02-15T14:29:48.795Z,8.9
2019-02-15T14:30:48.681Z,8.9
2019-02-15T14:31:48.815Z,8.9
2019-02-15T14:32:48.708Z,8.9
2019-02-15T14:33:49.039Z,8.9
2019-02-15T14:34:48.983Z,8.9
2019-02-15T14:35:48.858Z,8.9
2019-02-15T14:36:48.813Z,8.9
2019-02-15T14:37:48.726Z,8.9
2019-02-15T14:38:48.629Z,8.9
2019-02-15T14:39:48.553Z,8.9
2019-02-15T14:40:48.505Z,9
2019-02-15T14:41:48.644Z,9
2019-02-15T14:42:50.093Z,8.9
2019-02-15T14:43:50.435Z,8.9
2019-02-15T14:44:50.371Z,8.9
2019-02-15T14:45:50.291Z,8.9
2019-02-15T14:46:50.211Z,8.8
2019-02-15T14:47:55.916Z,8.9
2019-02-15T14:48:55.856Z,8.8